Time;durP1;ratioP1;P1;durP2;ratioP2;P2;SDS_P1;SDS_P2;PMS_P1;PMS_P2;Temp;Humidity;BMP_temperature;BMP_pressure;BME280_temperature;BME280_humidity;BME280_pressure;Samples;Min_cycle;Max_cycle;Signal;HPM_P1;HPM_P2
2021/12/19 00:01:16;;;;;;;234.40;28.60;;;0.90;99.90;;;;;;5009330;28;20033;-72
2021/12/19 00:09:04;;;;;;;178.85;25.45;;;0.90;99.90;;;;;;5009296;28;20497;-72
2021/12/19 00:11:30;;;;;;;276.73;31.38;;;0.90;99.90;;;;;;5007955;28;20030;-72
2021/12/19 00:13:56;;;;;;;264.90;31.00;;;0.90;99.90;;;;;;4995448;28;20084;-72
2021/12/19 00:16:22;;;;;;;256.95;29.85;;;0.90;99.90;;;;;;5012102;28;20084;-72
2021/12/19 00:18:50;;;;;;;243.95;29.05;;;0.90;99.90;;;;;;5011939;28;20060;-72
2021/12/19 00:21:17;;;;;;;279.23;30.67;;;0.90;99.90;;;;;;5012260;28;20736;-72
2021/12/19 00:23:45;;;;;;;268.02;28.75;;;1.00;99.90;;;;;;5012582;28;20038;-72
2021/12/19 00:26:11;;;;;;;116.68;21.30;;;0.90;99.90;;;;;;5011222;28;20433;-72
2021/12/19 00:28:38;;;;;;;158.38;23.08;;;1.00;99.90;;;;;;5012049;28;20143;-72
2021/12/19 00:31:04;;;;;;;209.07;26.05;;;1.00;99.90;;;;;;5012653;28;20038;-72
2021/12/19 00:33:30;;;;;;;127.53;21.75;;;0.90;99.90;;;;;;5009843;28;20038;-72
2021/12/19 00:35:56;;;;;;;102.93;20.20;;;1.00;99.90;;;;;;5012878;28;20041;-72
2021/12/19 00:38:22;;;;;;;191.13;24.48;;;1.00;99.90;;;;;;5011359;28;20046;-72
2021/12/19 00:40:48;;;;;;;449.92;35.00;;;1.00;99.90;;;;;;5011181;28;20057;-72
2021/12/19 00:43:37;;;;;;;388.02;30.15;;;1.00;99.90;;;;;;5012040;28;20080;-72
2021/12/19 00:46:06;;;;;;;144.40;20.90;;;1.00;99.90;;;;;;5010813;28;20065;-72
2021/12/19 00:48:33;;;;;;;242.43;25.92;;;1.00;99.90;;;;;;5008284;28;20915;-72
2021/12/19 00:50:59;;;;;;;297.83;28.20;;;1.00;99.90;;;;;;5011848;28;20077;-72
2021/12/19 00:53:24;;;;;;;241.48;25.52;;;1.00;99.90;;;;;;5011610;28;20029;-72
2021/12/19 00:55:50;;;;;;;76.28;16.73;;;1.00;99.90;;;;;;5011962;28;20037;-72
2021/12/19 00:58:17;;;;;;;89.47;19.55;;;1.00;99.90;;;;;;5011297;28;20534;-72
2021/12/19 01:00:43;;;;;;;143.23;22.02;;;1.00;99.90;;;;;;5007166;28;20565;-72
2021/12/19 01:03:08;;;;;;;143.10;21.48;;;0.90;99.90;;;;;;5010554;28;20105;-72
2021/12/19 01:05:38;;;;;;;71.43;18.13;;;1.00;99.90;;;;;;5010874;28;20313;-72
2021/12/19 01:08:05;;;;;;;93.63;18.45;;;0.90;99.90;;;;;;5010908;28;20444;-72
2021/12/19 01:10:32;;;;;;;92.45;17.38;;;0.90;99.90;;;;;;5009742;28;20478;-72
2021/12/19 01:12:58;;;;;;;98.15;18.17;;;0.90;99.90;;;;;;5010547;28;20102;-72
2021/12/19 01:15:24;;;;;;;210.90;22.67;;;1.00;99.90;;;;;;5011327;28;20163;-72
2021/12/19 01:17:50;;;;;;;106.45;19.83;;;1.00;99.90;;;;;;5011236;28;20117;-72
2021/12/19 01:20:19;;;;;;;152.85;20.73;;;1.00;99.90;;;;;;4993776;28;20037;-72
2021/12/19 01:22:46;;;;;;;74.80;17.05;;;1.00;99.90;;;;;;5010115;28;20168;-72
2021/12/19 01:25:11;;;;;;;49.90;13.30;;;1.00;99.90;;;;;;5011824;28;20169;-72
2021/12/19 01:27:37;;;;;;;48.50;13.15;;;1.10;99.90;;;;;;5010653;28;20522;-72
2021/12/19 01:30:05;;;;;;;54.67;13.15;;;1.10;99.90;;;;;;5011543;28;20038;-72
2021/12/19 01:32:31;;;;;;;54.28;14.13;;;1.10;99.90;;;;;;5010440;28;20033;-72
2021/12/19 01:34:57;;;;;;;53.63;12.43;;;1.20;99.90;;;;;;5009600;28;20038;-72
2021/12/19 01:37:22;;;;;;;45.60;12.93;;;1.10;99.90;;;;;;5010414;28;20042;-72
2021/12/19 01:39:48;;;;;;;38.63;12.25;;;1.20;99.90;;;;;;5009841;28;20368;-72
2021/12/19 01:42:14;;;;;;;38.58;12.13;;;1.20;99.90;;;;;;5011311;28;20041;-72
2021/12/19 01:44:40;;;;;;;43.50;11.93;;;1.20;99.90;;;;;;5010178;28;20037;-72
2021/12/19 01:47:07;;;;;;;63.92;12.05;;;1.20;99.90;;;;;;5011199;28;20462;-72
2021/12/19 01:49:33;;;;;;;50.88;13.30;;;1.10;99.90;;;;;;5009014;28;20124;-72
2021/12/19 01:51:59;;;;;;;54.22;12.63;;;1.10;99.90;;;;;;5009189;28;20570;-72
2021/12/19 01:54:25;;;;;;;110.88;16.15;;;1.10;99.90;;;;;;5010331;28;20054;-72
2021/12/19 01:56:51;;;;;;;102.68;14.93;;;1.10;99.90;;;;;;5010715;28;20036;-72
2021/12/19 01:59:16;;;;;;;48.25;12.30;;;1.10;99.90;;;;;;5010737;28;20038;-71
2021/12/19 02:01:44;;;;;;;42.25;11.55;;;1.10;99.90;;;;;;5010169;28;20030;-72
2021/12/19 02:04:11;;;;;;;29.50;8.73;;;1.10;99.90;;;;;;5010540;28;20096;-72
2021/12/19 02:06:56;;;;;;;29.92;6.25;;;1.10;99.90;;;;;;5010063;28;20040;-72
2021/12/19 02:09:22;;;;;;;17.58;5.00;;;1.20;99.90;;;;;;5010341;28;20034;-72
2021/12/19 02:11:48;;;;;;;20.20;5.53;;;1.10;99.90;;;;;;5010859;28;20099;-72
2021/12/19 02:14:13;;;;;;;19.42;5.95;;;1.10;99.90;;;;;;5010740;28;20030;-72
2021/12/19 02:16:41;;;;;;;22.95;6.97;;;1.10;99.90;;;;;;5009227;28;20694;-72
2021/12/19 02:19:08;;;;;;;23.42;7.25;;;1.00;99.90;;;;;;5010497;28;20038;-72
2021/12/19 02:21:34;;;;;;;29.70;7.20;;;1.10;99.90;;;;;;5008508;28;20035;-72
2021/12/19 02:24:04;;;;;;;30.38;7.05;;;1.10;99.90;;;;;;5010242;28;20033;-72
2021/12/19 02:26:30;;;;;;;22.45;6.38;;;1.10;99.90;;;;;;5009038;28;20038;-72
2021/12/19 02:28:56;;;;;;;23.13;6.53;;;1.10;99.90;;;;;;5009923;28;20046;-72
2021/12/19 02:31:22;;;;;;;23.92;6.63;;;1.00;99.90;;;;;;5009971;28;20021;-72
2021/12/19 02:34:03;;;;;;;19.70;6.63;;;1.10;99.90;;;;;;4990562;28;20035;-72
2021/12/19 02:39:39;;;;;;;19.95;6.22;;;1.10;99.90;;;;;;5010151;28;20052;-72
2021/12/19 02:50:13;;;;;;;20.05;5.53;;;1.10;99.90;;;;;;5009864;28;20033;-72
2021/12/19 02:52:38;;;;;;;;;;;1.10;99.90;;;;;;5009438;28;20099;-72
2021/12/19 02:55:06;;;;;;;16.45;5.05;;;1.00;99.90;;;;;;5009956;28;19910;-72
2021/12/19 02:57:32;;;;;;;25.25;6.38;;;1.00;99.90;;;;;;5008430;28;20046;-72
2021/12/19 02:59:58;;;;;;;23.25;5.93;;;1.00;99.90;;;;;;5010055;28;20034;-72
2021/12/19 03:02:24;;;;;;;21.17;5.47;;;1.00;99.90;;;;;;5009138;28;20026;-72
2021/12/19 03:04:57;;;;;;;18.33;4.95;;;1.00;99.90;;;;;;5009423;28;20471;-72
2021/12/19 03:07:24;;;;;;;16.90;5.15;;;1.00;99.90;;;;;;5008199;28;20038;-72
2021/12/19 03:12:57;;;;;;;16.88;5.18;;;1.00;99.90;;;;;;5008856;28;20037;-72
2021/12/19 03:18:08;;;;;;;25.30;6.88;;;1.00;99.90;;;;;;5009539;28;20088;-72
2021/12/19 03:20:37;;;;;;;22.58;5.78;;;1.00;99.90;;;;;;5008730;28;20400;-72
2021/12/19 03:23:04;;;;;;;24.00;6.20;;;0.90;99.90;;;;;;5009738;28;20034;-72
2021/12/19 03:25:32;;;;;;;32.78;7.40;;;1.00;99.90;;;;;;5008951;28;20463;-72
2021/12/19 03:27:58;;;;;;;23.92;6.50;;;0.90;99.90;;;;;;5008971;28;20093;-72
2021/12/19 03:30:24;;;;;;;21.60;6.15;;;0.90;99.90;;;;;;5008810;28;20200;-72
2021/12/19 03:32:50;;;;;;;30.00;5.93;;;0.90;99.90;;;;;;5009389;28;20030;-72
2021/12/19 03:35:16;;;;;;;35.30;7.15;;;0.80;99.90;;;;;;5009290;28;20528;-71
2021/12/19 03:37:42;;;;;;;28.50;6.80;;;0.80;99.90;;;;;;5008429;28;20037;-72
2021/12/19 03:40:12;;;;;;;33.22;7.10;;;0.80;99.90;;;;;;5009728;28;20033;-72
2021/12/19 03:42:42;;;;;;;34.47;7.50;;;0.80;99.90;;;;;;5008076;28;20465;-72
2021/12/19 03:45:12;;;;;;;22.48;5.13;;;0.70;99.90;;;;;;5009296;28;20040;-72
2021/12/19 03:47:39;;;;;;;32.58;7.40;;;0.70;99.90;;;;;;5012470;28;20042;-72
2021/12/19 03:50:07;;;;;;;29.08;6.38;;;0.70;99.90;;;;;;5013677;28;20029;-72
2021/12/19 03:52:33;;;;;;;43.65;7.47;;;0.70;99.90;;;;;;5012282;28;20096;-72
2021/12/19 03:54:58;;;;;;;37.97;6.75;;;0.70;99.90;;;;;;5013021;28;20026;-72
2021/12/19 03:57:24;;;;;;;38.97;7.28;;;0.70;99.90;;;;;;5013212;28;20038;-72
2021/12/19 03:59:50;;;;;;;85.22;10.55;;;0.60;99.90;;;;;;5012624;28;20037;-72
2021/12/19 04:02:27;;;;;;;52.35;10.15;;;0.70;99.90;;;;;;5012688;28;20036;-72
2021/12/19 04:04:55;;;;;;;209.68;15.15;;;0.70;99.90;;;;;;5012844;28;20050;-72
2021/12/19 04:07:22;;;;;;;125.32;13.57;;;0.60;99.90;;;;;;5013068;28;20038;-72
2021/12/19 04:09:48;;;;;;;162.20;14.57;;;0.70;99.90;;;;;;5010955;28;20591;-72
2021/12/19 04:12:15;;;;;;;148.68;13.98;;;0.70;99.90;;;;;;5012971;28;20037;-72
2021/12/19 04:14:41;;;;;;;190.88;16.65;;;0.70;99.90;;;;;;5002836;28;20530;-72
2021/12/19 04:17:07;;;;;;;220.80;18.42;;;0.80;99.90;;;;;;5012315;28;20083;-72
2021/12/19 04:19:33;;;;;;;69.88;11.57;;;0.80;99.90;;;;;;5011898;28;20030;-72
2021/12/19 04:21:59;;;;;;;86.00;11.38;;;0.70;99.90;;;;;;5013130;28;20471;-72
2021/12/19 04:24:26;;;;;;;52.03;10.23;;;0.80;99.90;;;;;;5011865;28;20040;-72
2021/12/19 04:26:52;;;;;;;68.63;10.40;;;0.70;99.90;;;;;;5012054;28;20132;-72
2021/12/19 04:29:18;;;;;;;87.93;12.00;;;0.80;99.90;;;;;;5012950;28;20038;-72
2021/12/19 04:31:43;;;;;;;145.77;14.15;;;0.80;99.90;;;;;;5011906;28;20025;-72
2021/12/19 04:34:09;;;;;;;136.10;15.35;;;0.80;99.90;;;;;;5011934;28;20033;-72
2021/12/19 04:36:40;;;;;;;67.97;11.13;;;0.80;99.90;;;;;;5012084;28;20052;-72
2021/12/19 04:51:00;;;;;;;163.63;14.93;;;0.90;99.90;;;;;;5011544;28;20060;-72
2021/12/19 04:57:56;;;;;;;219.30;20.75;;;0.80;99.90;;;;;;5010231;28;20044;-74
2021/12/19 05:00:33;;;;;;;240.52;21.10;;;0.70;99.90;;;;;;5011849;28;20038;-72
2021/12/19 05:03:06;;;;;;;229.48;19.73;;;0.80;99.90;;;;;;5010708;28;20029;-72
2021/12/19 05:16:22;;;;;;;240.55;17.33;;;0.70;99.90;;;;;;5011888;28;20109;-72
2021/12/19 05:18:50;;;;;;;374.83;23.08;;;0.70;99.90;;;;;;5009419;28;20160;-72
2021/12/19 05:21:19;;;;;;;276.67;20.98;;;0.70;99.90;;;;;;5011521;28;20105;-72
2021/12/19 05:26:11;;;;;;;128.05;15.07;;;0.70;99.90;;;;;;5011921;28;20489;-72
2021/12/19 05:28:37;;;;;;;110.80;14.63;;;0.80;99.90;;;;;;5010062;28;20418;-72
2021/12/19 05:31:02;;;;;;;111.88;13.27;;;0.80;99.90;;;;;;5011374;28;20030;-72
2021/12/19 05:33:28;;;;;;;143.85;15.55;;;0.80;99.90;;;;;;5011700;28;20459;-72
2021/12/19 05:46:33;;;;;;;85.70;13.10;;;0.80;99.90;;;;;;5027539;28;20109;-72
2021/12/19 05:48:59;;;;;;;280.88;22.27;;;0.80;99.90;;;;;;5011268;28;20113;-72
2021/12/19 05:51:25;;;;;;;189.38;21.40;;;0.80;99.90;;;;;;5002726;28;20034;-72
2021/12/19 05:53:50;;;;;;;230.82;19.52;;;0.70;99.90;;;;;;5014017;28;20157;-73
2021/12/19 05:56:16;;;;;;;271.15;22.55;;;0.70;99.90;;;;;;5016348;28;20068;-73
2021/12/19 05:58:42;;;;;;;221.05;19.25;;;0.70;99.90;;;;;;5026378;28;20061;-73
2021/12/19 06:01:07;;;;;;;253.10;21.02;;;0.70;99.90;;;;;;5030613;28;20045;-72
2021/12/19 06:03:33;;;;;;;241.77;20.20;;;0.70;99.90;;;;;;5027332;28;20034;-70
2021/12/19 06:05:59;;;;;;;190.80;17.90;;;0.70;99.90;;;;;;5013535;28;20458;-74
2021/12/19 06:08:24;;;;;;;500.67;31.27;;;0.70;99.90;;;;;;5016119;28;20477;-73
2021/12/19 06:10:50;;;;;;;481.05;29.63;;;0.70;99.90;;;;;;5028103;28;20030;-73
2021/12/19 06:13:16;;;;;;;228.63;21.63;;;0.70;99.90;;;;;;5030264;28;20034;-74
2021/12/19 06:15:41;;;;;;;224.40;21.77;;;0.70;99.90;;;;;;5029130;28;20037;-73
2021/12/19 06:18:07;;;;;;;185.15;19.60;;;0.70;99.90;;;;;;5022168;28;20153;-73
2021/12/19 06:20:33;;;;;;;149.98;17.75;;;0.70;99.90;;;;;;5024213;28;20033;-69
2021/12/19 06:22:59;;;;;;;224.82;19.75;;;0.70;99.90;;;;;;4998767;28;20026;-73
2021/12/19 06:25:25;;;;;;;229.32;19.77;;;0.70;99.90;;;;;;5030546;28;20026;-74
2021/12/19 06:27:51;;;;;;;286.45;22.23;;;0.60;99.90;;;;;;5011237;28;20068;-73
2021/12/19 06:30:17;;;;;;;140.27;15.27;;;0.60;99.90;;;;;;5018528;28;20029;-74
2021/12/19 06:32:43;;;;;;;334.00;24.55;;;0.60;99.90;;;;;;5028082;28;20079;-73
2021/12/19 06:35:17;;;;;;;291.20;22.20;;;0.60;99.90;;;;;;5030046;28;20033;-73
2021/12/19 06:37:45;;;;;;;114.05;16.27;;;0.60;99.90;;;;;;5025643;28;20041;-73
2021/12/19 06:40:15;;;;;;;76.20;13.38;;;0.60;99.90;;;;;;5000826;28;20441;-74
2021/12/19 06:42:41;;;;;;;100.13;14.15;;;0.60;99.90;;;;;;5029146;28;20056;-74
2021/12/19 06:45:07;;;;;;;188.35;17.73;;;0.60;99.90;;;;;;5029470;28;20389;-71
2021/12/19 06:47:33;;;;;;;108.88;15.25;;;0.60;99.90;;;;;;5013885;28;20124;-74
2021/12/19 06:49:59;;;;;;;130.73;16.83;;;0.60;99.90;;;;;;5028707;28;20128;-74
2021/12/19 06:52:24;;;;;;;116.40;14.70;;;0.60;99.90;;;;;;5028361;28;20542;-74
2021/12/19 06:54:50;;;;;;;128.85;15.98;;;0.60;99.90;;;;;;5023599;28;20116;-74
2021/12/19 06:57:16;;;;;;;137.32;16.80;;;0.60;99.90;;;;;;5008351;28;20087;-74
2021/12/19 06:59:42;;;;;;;72.40;14.18;;;0.60;99.90;;;;;;5019191;28;20061;-73
2021/12/19 07:02:13;;;;;;;84.13;14.85;;;0.60;99.90;;;;;;5025326;28;20036;-73
2021/12/19 07:04:39;;;;;;;88.93;12.88;;;0.70;99.90;;;;;;5012223;28;20076;-70
2021/12/19 07:07:05;;;;;;;81.85;14.90;;;0.70;99.90;;;;;;5030044;28;20068;-74
2021/12/19 07:09:31;;;;;;;63.80;12.18;;;0.70;99.90;;;;;;5027253;28;20068;-74
2021/12/19 07:11:56;;;;;;;84.20;14.02;;;0.70;99.90;;;;;;5021109;28;20022;-73
2021/12/19 07:14:22;;;;;;;58.78;11.05;;;0.70;99.90;;;;;;5025586;28;20108;-73
2021/12/19 07:16:47;;;;;;;51.67;12.10;;;0.70;99.90;;;;;;5020141;28;20075;-73
2021/12/19 07:19:13;;;;;;;67.53;12.45;;;0.70;99.90;;;;;;5026888;28;20041;-77
2021/12/19 07:21:39;;;;;;;54.38;12.20;;;0.70;99.90;;;;;;5008639;28;20029;-70
2021/12/19 07:24:04;;;;;;;48.00;11.32;;;0.70;99.90;;;;;;5012116;28;20057;-76
2021/12/19 07:26:30;;;;;;;49.63;10.60;;;0.70;99.90;;;;;;5007289;28;20038;-76
2021/12/19 07:28:57;;;;;;;46.35;10.65;;;0.80;99.90;;;;;;4989950;28;20641;-72
2021/12/19 07:31:23;;;;;;;44.85;10.52;;;0.80;99.90;;;;;;5001653;28;20083;-71
2021/12/19 07:33:49;;;;;;;52.05;11.38;;;0.90;99.90;;;;;;5009560;28;20030;-76
2021/12/19 07:36:17;;;;;;;54.78;11.52;;;0.80;99.90;;;;;;5006971;28;20030;-76
2021/12/19 07:38:54;;;;;;;48.95;10.93;;;0.80;99.90;;;;;;5010777;28;20030;-76
2021/12/19 07:41:20;;;;;;;52.65;11.00;;;0.90;99.90;;;;;;5007337;28;20525;-73
2021/12/19 07:43:46;;;;;;;43.13;10.45;;;0.80;99.90;;;;;;5006106;28;20034;-76
2021/12/19 07:46:12;;;;;;;50.38;10.40;;;0.80;99.90;;;;;;5001947;28;20030;-75
2021/12/19 07:48:37;;;;;;;39.28;10.13;;;0.90;99.90;;;;;;4996726;28;20200;-69
2021/12/19 07:51:03;;;;;;;47.08;10.05;;;0.90;99.90;;;;;;5014304;28;21018;-70
2021/12/19 07:53:28;;;;;;;49.13;10.63;;;1.00;99.90;;;;;;5009658;28;20029;-76
2021/12/19 07:55:55;;;;;;;44.03;9.77;;;0.90;99.90;;;;;;5011640;28;20021;-75
2021/12/19 07:58:20;;;;;;;46.08;10.43;;;0.90;99.90;;;;;;5006934;28;20084;-76
2021/12/19 08:00:46;;;;;;;45.17;10.32;;;0.90;99.90;;;;;;5010656;28;20056;-75
2021/12/19 08:03:12;;;;;;;44.53;10.52;;;1.00;99.90;;;;;;5015441;28;20034;-71
2021/12/19 08:05:38;;;;;;;38.08;10.35;;;1.00;99.90;;;;;;5012378;28;20030;-73
2021/12/19 08:08:05;;;;;;;42.83;9.88;;;0.90;99.90;;;;;;5009692;28;20030;-76
2021/12/19 08:12:57;;;;;;;40.03;9.82;;;1.00;99.90;;;;;;5013203;28;20462;-71
2021/12/19 08:15:23;;;;;;;34.20;8.77;;;1.00;99.90;;;;;;5010170;28;20044;-75
2021/12/19 08:17:49;;;;;;;35.60;8.38;;;1.00;99.90;;;;;;5016423;28;20104;-76
2021/12/19 08:20:17;;;;;;;39.92;8.68;;;1.00;99.90;;;;;;5006253;28;20052;-76
2021/12/19 08:22:43;;;;;;;36.25;8.82;;;1.00;99.90;;;;;;5007361;28;20151;-70
2021/12/19 08:25:09;;;;;;;39.25;8.80;;;1.00;99.90;;;;;;5013003;28;20026;-75
2021/12/19 08:27:37;;;;;;;31.00;8.05;;;1.00;99.90;;;;;;5012075;28;20054;-75
2021/12/19 08:30:05;;;;;;;34.60;9.18;;;1.00;99.90;;;;;;5011982;28;20033;-70
2021/12/19 08:32:30;;;;;;;36.42;8.82;;;1.10;99.90;;;;;;5013375;28;20052;-76
2021/12/19 08:34:56;;;;;;;32.25;7.75;;;1.00;99.90;;;;;;5018465;28;20470;-70
2021/12/19 08:37:22;;;;;;;34.88;8.63;;;1.10;99.90;;;;;;5011474;28;20040;-73
2021/12/19 08:39:47;;;;;;;38.38;8.25;;;1.10;99.90;;;;;;5016128;28;20355;-70
2021/12/19 08:42:14;;;;;;;35.35;9.50;;;1.00;99.90;;;;;;5011757;28;20076;-75
2021/12/19 08:44:41;;;;;;;34.92;9.55;;;1.00;99.90;;;;;;5013717;28;20030;-71
2021/12/19 08:47:07;;;;;;;34.55;8.75;;;1.10;99.90;;;;;;5013333;28;20038;-75
2021/12/19 08:49:34;;;;;;;32.03;9.40;;;1.10;99.90;;;;;;5015622;28;20061;-72
2021/12/19 08:52:01;;;;;;;38.42;9.18;;;1.20;99.90;;;;;;5011662;28;20041;-70
2021/12/19 08:54:26;;;;;;;33.30;8.25;;;1.10;99.90;;;;;;5014832;28;20033;-75
2021/12/19 08:56:52;;;;;;;39.65;8.80;;;1.10;99.90;;;;;;5023877;28;20788;-75
2021/12/19 08:59:18;;;;;;;43.45;8.90;;;1.10;99.90;;;;;;5017471;28;20053;-74
2021/12/19 09:01:44;;;;;;;40.58;9.23;;;1.10;99.90;;;;;;5024016;28;20029;-69
2021/12/19 09:04:10;;;;;;;33.53;10.38;;;1.10;99.90;;;;;;5009395;28;20462;-76
2021/12/19 09:06:37;;;;;;;35.80;9.18;;;1.10;99.90;;;;;;5011338;28;20057;-76
2021/12/19 09:09:06;;;;;;;42.47;10.20;;;1.10;99.90;;;;;;5009059;28;20030;-74
2021/12/19 09:11:33;;;;;;;35.83;8.93;;;1.20;99.90;;;;;;5002168;28;20057;-73
2021/12/19 09:13:59;;;;;;;44.65;9.45;;;1.10;99.90;;;;;;5027281;28;20109;-70
2021/12/19 09:16:25;;;;;;;40.65;10.02;;;1.10;99.90;;;;;;5015046;28;20033;-75
2021/12/19 09:18:51;;;;;;;42.55;9.57;;;1.10;99.90;;;;;;5000865;28;20096;-76
2021/12/19 09:21:17;;;;;;;43.90;9.23;;;1.10;99.90;;;;;;5009369;28;20104;-76
2021/12/19 09:23:43;;;;;;;40.22;9.52;;;1.20;99.90;;;;;;5010272;28;20038;-74
2021/12/19 09:26:08;;;;;;;44.13;10.57;;;1.20;99.90;;;;;;5002807;28;20030;-75
2021/12/19 09:28:34;;;;;;;44.88;9.82;;;1.20;99.90;;;;;;5001059;28;20383;-75
2021/12/19 09:31:00;;;;;;;39.33;8.80;;;1.20;99.90;;;;;;4993420;28;20212;-73
2021/12/19 09:33:26;;;;;;;48.03;10.60;;;1.20;99.90;;;;;;5009566;28;20041;-75
2021/12/19 09:35:52;;;;;;;37.80;9.80;;;1.20;99.90;;;;;;5008973;28;20398;-74
2021/12/19 09:38:20;;;;;;;38.22;9.63;;;1.10;99.90;;;;;;5009419;28;20052;-73
2021/12/19 09:40:47;;;;;;;34.80;8.57;;;1.20;99.90;;;;;;5009288;28;20387;-68
2021/12/19 09:43:48;;;;;;;43.50;9.90;;;1.20;99.90;;;;;;5007192;28;20489;-75
2021/12/19 09:46:08;;;;;;;33.83;8.88;;;1.30;99.90;;;;;;5005918;28;20234;-75
2021/12/19 09:48:34;;;;;;;32.55;8.30;;;1.30;99.90;;;;;;5010066;28;20145;-75
2021/12/19 09:50:59;;;;;;;31.50;8.23;;;1.40;99.90;;;;;;5008129;28;20105;-70
2021/12/19 09:53:25;;;;;;;39.40;9.45;;;1.30;99.90;;;;;;5009768;28;20038;-75
2021/12/19 09:55:51;;;;;;;40.22;9.27;;;1.40;99.90;;;;;;5009316;28;20034;-73
2021/12/19 09:58:16;;;;;;;34.50;8.98;;;1.30;99.90;;;;;;5010586;28;20049;-72
2021/12/19 10:00:42;;;;;;;43.90;10.73;;;1.30;99.90;;;;;;5011074;28;20887;-71
2021/12/19 10:03:11;;;;;;;49.70;9.80;;;1.30;99.90;;;;;;5008817;28;20226;-71
2021/12/19 10:05:37;;;;;;;42.53;10.10;;;1.30;99.90;;;;;;5010053;28;20557;-71
2021/12/19 10:08:03;;;;;;;52.58;11.07;;;1.20;99.90;;;;;;5009713;28;20116;-71
2021/12/19 10:10:46;;;;;;;56.88;10.80;;;1.10;99.90;;;;;;5010135;28;20471;-71
2021/12/19 10:13:12;;;;;;;48.78;10.88;;;1.10;99.90;;;;;;4990977;28;20030;-71
2021/12/19 10:15:41;;;;;;;79.95;12.25;;;1.20;99.90;;;;;;5005058;28;20031;-73
2021/12/19 10:18:08;;;;;;;71.45;12.27;;;1.10;99.90;;;;;;5010044;28;20182;-73
2021/12/19 10:20:59;;;;;;;149.45;15.75;;;1.10;99.90;;;;;;5010716;28;20044;-71
2021/12/19 10:23:29;;;;;;;;;;;1.10;99.90;;;;;;5010967;28;20026;-73
2021/12/19 10:25:55;;;;;;;59.33;9.07;;;1.10;99.90;;;;;;5009731;28;19952;-73
2021/12/19 10:28:20;;;;;;;47.53;10.25;;;1.10;99.90;;;;;;5009220;28;20325;-72
2021/12/19 10:30:48;;;;;;;42.10;9.63;;;1.20;99.90;;;;;;5010081;28;20417;-71
2021/12/19 10:33:17;;;;;;;52.85;11.10;;;1.10;99.90;;;;;;5010234;28;20034;-72
2021/12/19 10:35:50;;;;;;;134.65;14.65;;;1.10;99.90;;;;;;5010695;28;20045;-68
2021/12/19 10:38:32;;;;;;;55.55;10.82;;;1.10;99.90;;;;;;5009036;28;20038;-72
2021/12/19 10:41:02;;;;;;;58.35;9.73;;;1.00;99.90;;;;;;5008705;28;20538;-72
2021/12/19 10:43:31;;;;;;;62.58;11.35;;;1.00;99.90;;;;;;5010530;28;20029;-72
2021/12/19 10:46:00;;;;;;;47.08;9.45;;;1.10;99.90;;;;;;5005424;28;20032;-73
2021/12/19 10:48:31;;;;;;;37.63;9.38;;;1.00;99.90;;;;;;5010266;28;20053;-73
2021/12/19 10:51:05;;;;;;;41.83;9.18;;;1.00;99.90;;;;;;5005362;28;20036;-73
2021/12/19 10:53:39;;;;;;;32.53;8.25;;;1.00;99.90;;;;;;5007520;28;20034;-73
2021/12/19 10:56:09;;;;;;;34.03;8.32;;;1.00;99.90;;;;;;5003688;28;20018;-73
2021/12/19 10:58:44;;;;;;;40.55;9.43;;;1.00;99.90;;;;;;5009753;28;20121;-73
2021/12/19 11:01:16;;;;;;;37.83;8.73;;;1.10;99.90;;;;;;5009539;28;20699;-72
2021/12/19 11:03:45;;;;;;;38.47;8.82;;;1.10;99.90;;;;;;5010507;28;20030;-72
2021/12/19 11:06:38;;;;;;;36.95;8.05;;;1.10;99.90;;;;;;5019232;28;20627;-73
2021/12/19 11:09:06;;;;;;;31.33;7.38;;;1.20;99.90;;;;;;5027264;28;20032;-75
2021/12/19 11:11:33;;;;;;;36.47;9.60;;;1.20;99.90;;;;;;5029473;28;20084;-73
2021/12/19 11:14:00;;;;;;;39.95;8.68;;;1.20;99.90;;;;;;5028806;28;20029;-74
2021/12/19 11:16:26;;;;;;;46.50;9.88;;;1.20;99.90;;;;;;5029423;28;20355;-73
2021/12/19 11:18:52;;;;;;;47.63;10.75;;;1.20;99.90;;;;;;5029197;28;20039;-66
2021/12/19 11:21:19;;;;;;;44.65;9.55;;;1.20;99.90;;;;;;5006924;28;20026;-72
2021/12/19 11:23:46;;;;;;;45.25;11.10;;;1.10;99.90;;;;;;5003668;28;20038;-72
2021/12/19 11:26:12;;;;;;;44.72;9.15;;;1.10;99.90;;;;;;5006092;28;20093;-72
2021/12/19 11:28:38;;;;;;;44.08;10.93;;;1.10;99.90;;;;;;5001529;28;20149;-70
2021/12/19 11:31:05;;;;;;;52.80;11.32;;;1.10;99.90;;;;;;5024195;28;20037;-73
2021/12/19 11:34:05;;;;;;;64.68;10.93;;;1.10;99.90;;;;;;5005255;28;20037;-73
2021/12/19 11:36:41;;;;;;;42.15;9.30;;;1.10;99.90;;;;;;4990962;28;20544;-72
2021/12/19 11:39:08;;;;;;;45.75;9.57;;;1.10;99.90;;;;;;4995498;28;20104;-73
2021/12/19 11:41:35;;;;;;;34.17;8.73;;;1.10;99.90;;;;;;4996813;28;20114;-71
2021/12/19 11:44:06;;;;;;;30.17;9.02;;;1.10;99.90;;;;;;4994240;28;20057;-72
2021/12/19 11:46:43;;;;;;;38.92;9.05;;;1.10;99.90;;;;;;4993347;28;20045;-72
2021/12/19 11:49:19;;;;;;;34.15;8.80;;;1.10;99.90;;;;;;5002929;28;20471;-73
2021/12/19 11:51:45;;;;;;;23.48;7.35;;;1.10;99.90;;;;;;5004854;28;20033;-71
2021/12/19 11:54:15;;;;;;;32.38;8.23;;;1.20;99.90;;;;;;5000767;28;20041;-73
2021/12/19 11:57:10;;;;;;;29.52;7.60;;;1.30;99.90;;;;;;5013598;28;20039;-73
2021/12/19 11:59:38;;;;;;;26.52;7.50;;;1.20;99.90;;;;;;5012750;28;20042;-73
2021/12/19 12:02:24;;;;;;;29.83;8.35;;;1.20;99.90;;;;;;4994429;28;20037;-72
2021/12/19 12:05:14;;;;;;;31.42;7.47;;;1.30;99.90;;;;;;4991223;28;20027;-73
2021/12/19 12:08:06;;;;;;;23.38;6.25;;;1.20;99.90;;;;;;5010630;28;20430;-73
2021/12/19 12:10:51;;;;;;;29.92;6.47;;;1.30;99.90;;;;;;5001883;28;20116;-73
2021/12/19 12:13:35;;;;;;;21.98;7.00;;;1.30;99.90;;;;;;5010349;28;20600;-72
2021/12/19 12:16:18;;;;;;;28.10;6.93;;;1.30;99.90;;;;;;5015404;28;20036;-72
2021/12/19 12:18:43;;;;;;;25.00;7.15;;;1.30;99.90;;;;;;5019061;28;20097;-74
2021/12/19 12:21:30;;;;;;;24.58;7.95;;;1.30;99.90;;;;;;5014370;28;20030;-73
2021/12/19 12:24:05;;;;;;;23.05;6.57;;;1.30;99.90;;;;;;5012400;28;20482;-68
2021/12/19 12:26:51;;;;;;;25.70;7.18;;;1.40;99.90;;;;;;5018684;28;20044;-73
2021/12/19 12:29:17;;;;;;;24.35;6.45;;;1.30;99.90;;;;;;5027546;28;20094;-73
2021/12/19 12:31:45;;;;;;;23.17;7.00;;;1.30;99.90;;;;;;5031240;28;20117;-71
2021/12/19 12:34:13;;;;;;;27.08;8.45;;;1.30;99.90;;;;;;5028910;28;20035;-74
2021/12/19 12:36:39;;;;;;;26.23;7.95;;;1.30;99.90;;;;;;5015012;28;20045;-73
2021/12/19 12:39:10;;;;;;;24.27;7.10;;;1.40;99.90;;;;;;5011755;28;20030;-73
2021/12/19 12:44:07;;;;;;;26.58;7.47;;;1.30;99.90;;;;;;5013722;28;20033;-73
2021/12/19 12:46:34;;;;;;;30.33;8.73;;;1.40;99.90;;;;;;5015418;28;20062;-73
2021/12/19 12:49:14;;;;;;;27.80;7.00;;;1.30;99.90;;;;;;5011170;28;20034;-66
2021/12/19 12:51:41;;;;;;;20.25;7.47;;;1.30;99.90;;;;;;5009667;28;20500;-73
2021/12/19 12:54:10;;;;;;;28.25;8.25;;;1.30;99.90;;;;;;5018910;28;20048;-73
2021/12/19 12:56:44;;;;;;;24.77;7.60;;;1.30;99.90;;;;;;5024543;28;20033;-72
2021/12/19 12:59:12;;;;;;;26.60;8.32;;;1.30;99.90;;;;;;5010846;28;20046;-72
2021/12/19 13:01:42;;;;;;;28.27;8.07;;;1.30;99.90;;;;;;5013085;28;20805;-71
2021/12/19 13:04:24;;;;;;;24.67;8.40;;;1.40;99.90;;;;;;5022190;28;20140;-71
2021/12/19 13:07:04;;;;;;;26.13;8.65;;;1.30;99.90;;;;;;5021210;28;20387;-72
2021/12/19 13:09:37;;;;;;;22.27;6.75;;;1.30;99.90;;;;;;5012153;28;20370;-72
2021/12/19 13:12:07;;;;;;;34.67;8.27;;;1.30;99.90;;;;;;5015521;28;20112;-71
2021/12/19 13:14:39;;;;;;;30.50;8.02;;;1.40;99.90;;;;;;5019962;28;20029;-72
2021/12/19 13:17:13;;;;;;;30.77;8.90;;;1.40;99.90;;;;;;5043178;28;20030;-72
2021/12/19 13:19:46;;;;;;;32.15;9.20;;;1.30;99.90;;;;;;5006031;28;20030;-72
2021/12/19 13:22:15;;;;;;;36.38;8.40;;;1.30;99.90;;;;;;5022372;28;20097;-71
2021/12/19 13:24:42;;;;;;;28.92;8.80;;;1.30;99.90;;;;;;5021787;28;20108;-73
2021/12/19 13:27:12;;;;;;;43.92;9.25;;;1.40;99.90;;;;;;5012176;28;20089;-71
2021/12/19 13:29:40;;;;;;;42.55;10.02;;;1.30;99.90;;;;;;5013994;28;20073;-73
2021/12/19 13:32:44;;;;;;;30.60;9.43;;;1.40;99.90;;;;;;5006920;28;20044;-72
2021/12/19 13:35:35;;;;;;;24.40;8.20;;;1.40;99.90;;;;;;5007058;28;20041;-70
2021/12/19 13:38:08;;;;;;;28.52;8.07;;;1.40;99.90;;;;;;5013026;28;20069;-66
2021/12/19 13:40:57;;;;;;;35.83;9.27;;;1.30;99.90;;;;;;5024558;28;20029;-72
2021/12/19 13:43:29;;;;;;;27.92;8.35;;;1.30;99.90;;;;;;5009401;28;20045;-70
2021/12/19 13:46:05;;;;;;;32.38;8.77;;;1.30;99.90;;;;;;5006450;28;20034;-71
2021/12/19 13:48:31;;;;;;;52.25;10.68;;;1.20;99.90;;;;;;5008920;28;20045;-71
2021/12/19 13:51:00;;;;;;;43.00;10.15;;;1.20;99.90;;;;;;5008970;28;20045;-72
2021/12/19 13:53:28;;;;;;;38.95;9.57;;;1.30;99.90;;;;;;5005322;28;20503;-73
2021/12/19 13:56:04;;;;;;;71.72;10.70;;;1.30;99.90;;;;;;5001601;28;20100;-72